Time;durP1;ratioP1;P1;durP2;ratioP2;P2;SDS_P1;SDS_P2;PMS_P1;PMS_P2;Temp;Humidity;BMP_temperature;BMP_pressure;BME280_temperature;BME280_humidity;BME280_pressure;Samples;Min_cycle;Max_cycle;Signal;HPM_P1;HPM_P2
2023/01/25 00:00:10;;;;;;;11.25;6.53;;;2.00;99.90;;;;;;4906778;28;20079;-78
2023/01/25 00:02:36;;;;;;;10.23;6.53;;;2.00;99.90;;;;;;4921285;29;20079;-78
2023/01/25 00:05:02;;;;;;;10.68;6.72;;;1.90;99.90;;;;;;4944627;29;20047;-78
2023/01/25 00:07:28;;;;;;;11.15;6.75;;;1.80;99.90;;;;;;4959697;28;20114;-77
2023/01/25 00:09:54;;;;;;;10.77;7.05;;;1.90;99.90;;;;;;4939299;29;20065;-77
2023/01/25 00:12:19;;;;;;;10.00;6.10;;;2.00;99.90;;;;;;4925367;29;20487;-78
2023/01/25 00:14:45;;;;;;;11.63;7.45;;;1.80;99.90;;;;;;4936337;29;20110;-78
2023/01/25 00:17:11;;;;;;;12.23;7.32;;;1.90;99.90;;;;;;4954568;29;20130;-77
2023/01/25 00:19:37;;;;;;;10.10;6.22;;;1.80;99.90;;;;;;4909149;29;20071;-77
2023/01/25 00:22:02;;;;;;;9.38;6.30;;;2.00;99.90;;;;;;4929899;29;20253;-78
2023/01/25 00:24:28;;;;;;;10.57;7.13;;;2.00;99.90;;;;;;4915273;29;20074;-78
2023/01/25 00:26:54;;;;;;;11.63;6.57;;;1.90;99.90;;;;;;4939126;28;20043;-78
2023/01/25 00:29:20;;;;;;;10.88;6.53;;;1.90;99.90;;;;;;4942124;28;20066;-78
2023/01/25 00:32:02;;;;;;;12.50;7.15;;;2.00;99.90;;;;;;4941914;28;20043;-78
2023/01/25 00:34:28;;;;;;;12.20;7.25;;;1.90;99.90;;;;;;4942184;29;20055;-78
2023/01/25 00:37:01;;;;;;;12.50;7.45;;;2.00;99.90;;;;;;4953277;29;20429;-78
2023/01/25 00:39:27;;;;;;;11.27;6.45;;;1.90;99.90;;;;;;4951716;28;20472;-78
2023/01/25 00:41:53;;;;;;;12.38;7.15;;;1.90;99.90;;;;;;4942259;28;20061;-78
2023/01/25 00:44:19;;;;;;;13.73;7.82;;;1.80;99.90;;;;;;4907589;29;20051;-78
2023/01/25 00:46:44;;;;;;;16.90;8.27;;;1.90;99.90;;;;;;4929273;28;20063;-78
2023/01/25 00:49:20;;;;;;;12.18;7.28;;;2.00;99.90;;;;;;4923347;29;20090;-79
2023/01/25 00:51:46;;;;;;;11.93;6.65;;;1.90;99.90;;;;;;4939488;29;20125;-78
2023/01/25 00:54:12;;;;;;;13.48;7.25;;;1.90;99.90;;;;;;4944812;29;20142;-78
2023/01/25 00:56:37;;;;;;;15.27;7.82;;;1.80;99.90;;;;;;4938741;28;20541;-79
2023/01/25 00:59:03;;;;;;;14.95;8.55;;;1.80;99.90;;;;;;4923271;29;20051;-79
2023/01/25 01:01:29;;;;;;;13.73;8.75;;;1.90;99.90;;;;;;4909646;29;20079;-79
2023/01/25 01:03:54;;;;;;;15.95;9.15;;;1.80;99.90;;;;;;4952927;29;20047;-79
2023/01/25 01:06:20;;;;;;;15.63;8.82;;;1.90;99.90;;;;;;4929506;28;20070;-79
2023/01/25 01:08:46;;;;;;;13.80;8.88;;;1.90;99.90;;;;;;4946198;29;20058;-78
2023/01/25 01:11:12;;;;;;;14.25;8.63;;;2.00;99.90;;;;;;4940355;28;20043;-78
2023/01/25 01:13:38;;;;;;;15.07;9.10;;;2.00;99.90;;;;;;4939040;29;20473;-78
2023/01/25 01:16:07;;;;;;;16.45;10.43;;;1.90;99.90;;;;;;4939128;29;20070;-79
2023/01/25 01:18:36;;;;;;;15.55;9.40;;;2.00;99.90;;;;;;4938138;29;20050;-78
2023/01/25 01:21:02;;;;;;;17.77;10.70;;;2.00;99.90;;;;;;4958382;28;20047;-78
2023/01/25 01:23:30;;;;;;;15.85;9.38;;;2.00;99.90;;;;;;4928270;29;20055;-78
2023/01/25 01:25:59;;;;;;;19.10;10.80;;;2.00;99.90;;;;;;4922143;29;20097;-78
2023/01/25 01:28:24;;;;;;;19.17;11.27;;;1.90;99.90;;;;;;4922767;29;20801;-78
2023/01/25 01:30:50;;;;;;;18.30;10.57;;;1.90;99.90;;;;;;4939908;29;20050;-79
2023/01/25 01:33:16;;;;;;;16.98;10.38;;;1.90;99.90;;;;;;4927784;28;20102;-78
2023/01/25 01:35:42;;;;;;;21.13;12.20;;;1.90;99.90;;;;;;4940944;29;20043;-78
2023/01/25 01:38:07;;;;;;;20.38;11.90;;;1.70;99.90;;;;;;4952672;28;20046;-78
2023/01/25 01:40:33;;;;;;;21.20;11.90;;;1.80;99.90;;;;;;4944452;28;20546;-78
2023/01/25 01:43:00;;;;;;;20.75;11.63;;;1.80;99.90;;;;;;4912437;29;20039;-78
2023/01/25 01:45:51;;;;;;;27.20;14.55;;;1.80;99.90;;;;;;4943481;28;20057;-78
2023/01/25 01:48:39;;;;;;;24.02;13.38;;;1.70;99.90;;;;;;4929081;28;20496;-78
2023/01/25 01:51:09;;;;;;;27.58;15.20;;;1.70;99.90;;;;;;4953005;29;20793;-78
2023/01/25 01:53:35;;;;;;;24.17;13.45;;;1.70;99.90;;;;;;4936826;28;20043;-78
2023/01/25 01:56:03;;;;;;;24.73;14.50;;;1.80;99.90;;;;;;4938568;28;20062;-79
2023/01/25 01:58:29;;;;;;;25.37;13.40;;;1.90;99.90;;;;;;4934972;28;20035;-78
2023/01/25 02:00:54;;;;;;;23.60;13.40;;;1.90;99.90;;;;;;4908170;29;20090;-78
2023/01/25 02:03:20;;;;;;;24.70;13.38;;;1.90;99.90;;;;;;4939051;28;20039;-78
2023/01/25 02:05:57;;;;;;;25.88;13.77;;;1.90;99.90;;;;;;4943844;29;20122;-78
2023/01/25 02:08:26;;;;;;;21.48;11.65;;;1.70;99.90;;;;;;4937070;29;20157;-77
2023/01/25 02:10:52;;;;;;;26.35;14.77;;;1.80;99.90;;;;;;4928135;28;20534;-78
2023/01/25 02:13:17;;;;;;;28.45;14.80;;;1.70;99.90;;;;;;4961813;28;20055;-78
2023/01/25 02:15:48;;;;;;;28.88;15.77;;;1.60;99.90;;;;;;4916915;28;20058;-78
2023/01/25 02:18:14;;;;;;;27.42;14.25;;;1.70;99.90;;;;;;4942894;28;20126;-78
2023/01/25 02:20:42;;;;;;;30.48;16.10;;;1.70;99.90;;;;;;4911350;28;20126;-78
2023/01/25 02:23:46;;;;;;;31.85;16.98;;;1.70;99.90;;;;;;4928061;29;20074;-78
2023/01/25 02:26:12;;;;;;;31.00;16.60;;;1.70;99.90;;;;;;4955607;28;20122;-78
2023/01/25 02:28:56;;;;;;;30.48;16.85;;;1.70;99.90;;;;;;4942340;28;20186;-78
2023/01/25 02:31:22;;;;;;;30.45;16.58;;;1.60;99.90;;;;;;4929457;29;20055;-78
2023/01/25 02:33:48;;;;;;;28.13;15.65;;;1.50;99.90;;;;;;4922531;28;20402;-78
2023/01/25 02:36:20;;;;;;;32.15;16.98;;;1.60;99.90;;;;;;4940887;29;20043;-78
2023/01/25 02:38:52;;;;;;;32.72;17.63;;;1.50;99.90;;;;;;4917984;29;20050;-78
2023/01/25 02:41:24;;;;;;;26.58;14.70;;;1.60;99.90;;;;;;4947968;29;20039;-78
2023/01/25 02:43:57;;;;;;;34.97;17.83;;;1.70;99.90;;;;;;4945533;28;20049;-78
2023/01/25 02:46:26;;;;;;;30.52;16.25;;;1.60;99.90;;;;;;4937369;28;20045;-78
2023/01/25 02:48:53;;;;;;;28.40;16.08;;;1.60;99.90;;;;;;4941625;29;20035;-78
2023/01/25 02:51:22;;;;;;;31.50;15.85;;;1.70;99.90;;;;;;4933066;28;20050;-79
2023/01/25 02:53:48;;;;;;;32.80;17.50;;;1.70;99.90;;;;;;4907452;29;20732;-78
2023/01/25 02:56:14;;;;;;;33.22;17.83;;;1.70;99.90;;;;;;4949488;28;20053;-78
2023/01/25 02:58:40;;;;;;;31.70;15.82;;;1.70;99.90;;;;;;4927884;29;20127;-77
2023/01/25 03:01:06;;;;;;;30.75;17.27;;;1.70;99.90;;;;;;4950860;28;20042;-78
2023/01/25 03:03:31;;;;;;;27.65;15.02;;;1.70;99.90;;;;;;4928035;28;20145;-78
2023/01/25 03:05:57;;;;;;;33.20;18.05;;;1.60;99.90;;;;;;4941476;29;20043;-78
2023/01/25 03:08:23;;;;;;;30.73;16.33;;;1.70;99.90;;;;;;4947440;28;20140;-78
2023/01/25 03:10:49;;;;;;;35.42;17.95;;;1.70;99.90;;;;;;4964158;28;20334;-78
2023/01/25 03:13:14;;;;;;;32.10;17.75;;;1.60;99.90;;;;;;4947115;29;20130;-78
2023/01/25 03:15:40;;;;;;;32.13;17.42;;;1.60;99.90;;;;;;4943923;28;20456;-78
2023/01/25 03:18:06;;;;;;;31.45;17.17;;;1.50;99.90;;;;;;4933773;29;20043;-78
2023/01/25 03:20:32;;;;;;;34.85;18.17;;;1.50;99.90;;;;;;4944243;28;20039;-78
2023/01/25 03:22:57;;;;;;;35.97;18.00;;;1.70;99.90;;;;;;4952238;28;20074;-78
2023/01/25 03:25:23;;;;;;;42.03;20.92;;;1.60;99.90;;;;;;4943908;28;20558;-78
2023/01/25 03:27:49;;;;;;;33.10;17.20;;;1.60;99.90;;;;;;4914151;28;20078;-79
2023/01/25 03:30:15;;;;;;;33.80;17.08;;;1.60;99.90;;;;;;4943721;29;20047;-78
2023/01/25 03:32:40;;;;;;;37.10;19.23;;;1.50;99.90;;;;;;4936427;28;20059;-79
2023/01/25 03:35:06;;;;;;;33.50;18.50;;;1.60;99.90;;;;;;4925430;28;20048;-78
2023/01/25 03:37:33;;;;;;;43.08;21.92;;;1.60;99.90;;;;;;4946445;28;20048;-78
2023/01/25 03:39:58;;;;;;;38.28;20.48;;;1.50;99.90;;;;;;4929086;28;20384;-78
2023/01/25 03:42:24;;;;;;;35.70;18.50;;;1.50;99.90;;;;;;4940374;28;20047;-78
2023/01/25 03:44:50;;;;;;;38.60;20.10;;;1.50;99.90;;;;;;4922123;28;20048;-77
2023/01/25 03:47:16;;;;;;;33.92;18.60;;;1.50;99.90;;;;;;4935845;28;20511;-78
2023/01/25 03:49:42;;;;;;;35.53;18.45;;;1.50;99.90;;;;;;4940267;29;20437;-77
2023/01/25 03:52:07;;;;;;;33.70;17.20;;;1.60;99.90;;;;;;4924157;29;20111;-78
2023/01/25 03:54:33;;;;;;;38.70;20.23;;;1.60;99.90;;;;;;4889287;29;20122;-78
2023/01/25 03:56:59;;;;;;;38.40;18.42;;;1.50;99.90;;;;;;4933100;29;20047;-77
2023/01/25 03:59:25;;;;;;;32.92;17.67;;;1.50;99.90;;;;;;4936271;29;20043;-78
2023/01/25 04:01:51;;;;;;;39.38;19.65;;;1.30;99.90;;;;;;4936820;29;20134;-78
2023/01/25 04:04:16;;;;;;;41.13;20.15;;;1.10;99.90;;;;;;4950735;28;20047;-77
2023/01/25 04:06:42;;;;;;;40.05;20.40;;;1.20;99.90;;;;;;4934258;28;20448;-77
2023/01/25 04:09:08;;;;;;;37.17;19.45;;;1.20;99.90;;;;;;4958935;28;20051;-78
2023/01/25 04:11:34;;;;;;;40.58;20.08;;;1.30;99.90;;;;;;4938108;28;20043;-77
2023/01/25 04:14:00;;;;;;;35.88;18.83;;;1.20;99.90;;;;;;4939962;28;20043;-78
2023/01/25 04:16:26;;;;;;;35.88;18.98;;;1.20;99.90;;;;;;4919978;29;20082;-78
2023/01/25 04:18:52;;;;;;;36.85;19.00;;;1.30;99.90;;;;;;4939252;28;20047;-77
2023/01/25 04:21:18;;;;;;;37.90;18.38;;;1.30;99.90;;;;;;4940114;29;20053;-78
2023/01/25 04:23:43;;;;;;;34.92;18.70;;;1.30;99.90;;;;;;4927929;29;20055;-78
2023/01/25 04:26:11;;;;;;;40.40;20.15;;;1.30;99.90;;;;;;4939747;28;20046;-79
2023/01/25 04:28:37;;;;;;;41.00;19.60;;;1.20;99.90;;;;;;4928854;28;20117;-78
2023/01/25 04:31:04;;;;;;;37.63;18.38;;;1.10;99.90;;;;;;4925142;29;20050;-78
2023/01/25 04:33:30;;;;;;;37.60;18.58;;;1.00;99.90;;;;;;4936121;29;20137;-78
2023/01/25 04:35:56;;;;;;;40.10;20.33;;;1.20;99.90;;;;;;4928910;28;20123;-79
2023/01/25 04:38:25;;;;;;;34.22;18.00;;;1.20;99.90;;;;;;4946112;28;20039;-78
2023/01/25 04:40:51;;;;;;;38.45;17.83;;;1.20;99.90;;;;;;4929478;28;20038;-78
2023/01/25 04:43:17;;;;;;;35.40;17.13;;;1.10;99.90;;;;;;4934355;28;20481;-78
2023/01/25 04:45:43;;;;;;;33.70;16.55;;;1.10;99.90;;;;;;4924103;28;20059;-78
2023/01/25 04:48:10;;;;;;;28.45;15.20;;;1.20;99.90;;;;;;4944610;28;20111;-78
2023/01/25 04:50:36;;;;;;;34.67;16.15;;;1.30;99.90;;;;;;4942897;28;20065;-78
2023/01/25 04:53:02;;;;;;;37.92;18.75;;;1.30;99.90;;;;;;4923465;28;20039;-78
2023/01/25 04:55:28;;;;;;;30.60;15.32;;;1.30;99.90;;;;;;4939380;29;20043;-78
2023/01/25 04:57:54;;;;;;;31.02;16.05;;;1.00;99.90;;;;;;4945078;28;20052;-78
2023/01/25 05:00:20;;;;;;;35.15;16.98;;;1.10;99.90;;;;;;4943164;28;20456;-78
2023/01/25 05:02:45;;;;;;;32.08;16.63;;;1.00;99.90;;;;;;4925907;28;20079;-77
2023/01/25 05:05:11;;;;;;;34.33;15.68;;;0.90;99.90;;;;;;4923163;29;20364;-78
2023/01/25 05:07:37;;;;;;;34.88;17.17;;;1.00;99.90;;;;;;4951997;29;20082;-78
2023/01/25 05:10:03;;;;;;;35.25;17.40;;;0.90;99.90;;;;;;4926223;29;20055;-78
2023/01/25 05:12:29;;;;;;;29.70;16.25;;;1.00;99.90;;;;;;4951631;29;20043;-78
2023/01/25 05:14:55;;;;;;;36.03;17.05;;;1.10;99.90;;;;;;4938435;29;20054;-78
2023/01/25 05:17:20;;;;;;;32.00;16.17;;;1.10;99.90;;;;;;4939422;28;20409;-78
2023/01/25 05:19:46;;;;;;;37.80;17.92;;;1.00;99.90;;;;;;4939379;29;20376;-78
2023/01/25 05:22:16;;;;;;;30.80;16.70;;;1.00;99.90;;;;;;4929154;29;20064;-78
2023/01/25 05:24:43;;;;;;;39.28;17.60;;;1.20;99.90;;;;;;4945373;29;20363;-78
2023/01/25 05:27:10;;;;;;;34.73;15.37;;;1.20;99.90;;;;;;4939778;29;20051;-77
2023/01/25 05:29:39;;;;;;;29.65;15.07;;;1.30;99.90;;;;;;4932799;29;20282;-78
2023/01/25 05:32:08;;;;;;;34.90;16.58;;;1.30;99.90;;;;;;4947546;28;20110;-78
2023/01/25 05:34:34;;;;;;;34.13;17.55;;;1.10;99.90;;;;;;4949589;29;20055;-78
2023/01/25 05:37:00;;;;;;;40.03;17.48;;;1.20;99.90;;;;;;4958445;28;20047;-78
2023/01/25 05:39:25;;;;;;;41.72;16.48;;;0.90;99.90;;;;;;4948421;29;20058;-77
2023/01/25 05:41:51;;;;;;;36.70;16.73;;;0.90;99.90;;;;;;4948169;29;20043;-77
2023/01/25 05:44:17;;;;;;;36.17;16.13;;;0.80;99.90;;;;;;4919482;28;20146;-77
2023/01/25 05:46:43;;;;;;;36.50;17.10;;;0.90;99.90;;;;;;4932887;29;20046;-77
2023/01/25 05:49:09;;;;;;;35.78;15.45;;;1.00;99.90;;;;;;4940994;28;20045;-77
2023/01/25 05:51:35;;;;;;;35.33;15.95;;;1.00;99.90;;;;;;4956728;28;20043;-77
2023/01/25 05:54:01;;;;;;;34.25;15.63;;;1.00;99.90;;;;;;4944449;29;20118;-78
2023/01/25 05:56:27;;;;;;;38.25;16.85;;;1.00;99.90;;;;;;4942781;29;20122;-77
2023/01/25 05:58:53;;;;;;;33.80;14.50;;;1.00;99.90;;;;;;4938961;28;20043;-77
2023/01/25 06:01:19;;;;;;;32.97;15.25;;;1.00;99.90;;;;;;4924619;28;20043;-77
2023/01/25 06:03:45;;;;;;;37.75;16.15;;;0.90;99.90;;;;;;4926374;29;20528;-77
2023/01/25 06:06:11;;;;;;;41.97;17.75;;;0.90;99.90;;;;;;4954718;28;20124;-78
2023/01/25 06:08:37;;;;;;;34.25;16.13;;;1.00;99.90;;;;;;4926580;29;20558;-77
2023/01/25 06:11:07;;;;;;;39.85;17.42;;;1.00;99.90;;;;;;4938486;28;20042;-77
2023/01/25 06:13:33;;;;;;;38.70;17.75;;;0.80;99.90;;;;;;4954443;28;20039;-77
2023/01/25 06:15:59;;;;;;;41.63;16.02;;;0.70;99.90;;;;;;4941301;29;20036;-77
2023/01/25 06:18:24;;;;;;;43.05;17.25;;;0.60;99.90;;;;;;4922599;28;20413;-77
2023/01/25 06:20:50;;;;;;;38.55;17.00;;;0.60;99.90;;;;;;4942096;29;20051;-79
2023/01/25 06:23:16;;;;;;;30.15;15.20;;;0.80;99.90;;;;;;4932662;28;20050;-79
2023/01/25 06:25:42;;;;;;;41.03;17.50;;;0.90;99.90;;;;;;4947546;28;20133;-78
2023/01/25 06:28:08;;;;;;;32.85;15.38;;;0.90;99.90;;;;;;4942336;29;20065;-77
2023/01/25 06:30:33;;;;;;;37.45;16.02;;;1.00;99.90;;;;;;4942054;29;20452;-78
2023/01/25 06:32:59;;;;;;;35.00;15.57;;;0.90;99.90;;;;;;4925563;29;20062;-78
2023/01/25 06:35:25;;;;;;;32.22;15.35;;;1.00;99.90;;;;;;4909167;29;20091;-77
2023/01/25 06:37:55;;;;;;;38.00;17.25;;;1.10;99.90;;;;;;4940653;29;20522;-78
2023/01/25 06:40:21;;;;;;;32.08;14.32;;;1.10;99.90;;;;;;4940645;29;20498;-78
2023/01/25 06:42:46;;;;;;;36.90;16.60;;;1.20;99.90;;;;;;4921355;29;20051;-78
2023/01/25 06:45:15;;;;;;;29.70;14.82;;;1.10;99.90;;;;;;4954463;29;20052;-78
2023/01/25 06:47:41;;;;;;;31.23;14.48;;;1.10;99.90;;;;;;4949390;28;20057;-78
2023/01/25 06:50:08;;;;;;;32.60;15.10;;;1.10;99.90;;;;;;4953556;28;20047;-77
2023/01/25 06:52:35;;;;;;;37.28;17.05;;;1.00;99.90;;;;;;4929131;28;20106;-78
2023/01/25 06:55:05;;;;;;;32.25;14.18;;;1.10;99.90;;;;;;4944490;29;20053;-78
2023/01/25 06:57:31;;;;;;;36.47;15.60;;;1.10;99.90;;;;;;4926944;28;20038;-77
2023/01/25 06:59:57;;;;;;;37.80;15.82;;;1.10;99.90;;;;;;4924322;29;20055;-78
2023/01/25 07:02:22;;;;;;;41.70;16.98;;;1.10;99.90;;;;;;4970440;28;20051;-77
2023/01/25 07:04:48;;;;;;;35.28;15.60;;;0.90;99.90;;;;;;4951800;28;20051;-78
2023/01/25 07:07:14;;;;;;;32.90;15.10;;;0.90;99.90;;;;;;4928435;28;20191;-79
2023/01/25 07:09:40;;;;;;;30.42;14.70;;;0.90;99.90;;;;;;4926100;29;20036;-78
2023/01/25 07:12:06;;;;;;;33.38;15.70;;;0.90;99.90;;;;;;4939772;28;20046;-77
2023/01/25 07:14:31;;;;;;;39.15;17.70;;;1.00;99.90;;;;;;4925687;28;20054;-77
2023/01/25 07:16:57;;;;;;;35.78;16.60;;;0.90;99.90;;;;;;4933391;28;20126;-78
2023/01/25 07:19:23;;;;;;;42.38;18.35;;;0.90;99.90;;;;;;4935059;28;20051;-77
2023/01/25 07:21:49;;;;;;;39.70;16.52;;;1.00;99.90;;;;;;4931494;28;20072;-77
2023/01/25 07:24:16;;;;;;;35.47;16.75;;;0.90;99.90;;;;;;4939967;29;20057;-78
2023/01/25 07:26:42;;;;;;;33.25;16.65;;;0.90;99.90;;;;;;4946023;28;20054;-77
2023/01/25 07:29:08;;;;;;;33.85;14.20;;;0.90;99.90;;;;;;4924247;28;20715;-77
2023/01/25 07:31:34;;;;;;;28.95;12.65;;;1.00;99.90;;;;;;4952599;28;20162;-78
2023/01/25 07:34:00;;;;;;;29.65;13.52;;;0.80;99.90;;;;;;4932118;29;20138;-78
2023/01/25 07:36:26;;;;;;;38.97;15.50;;;0.80;99.90;;;;;;4929679;29;20036;-77
2023/01/25 07:38:56;;;;;;;37.35;15.07;;;0.70;99.90;;;;;;4938940;28;20538;-77
2023/01/25 07:41:25;;;;;;;29.83;14.65;;;0.80;99.90;;;;;;4938362;29;20043;-78
2023/01/25 07:43:51;;;;;;;32.78;14.23;;;0.90;99.90;;;;;;4940408;28;20043;-77
2023/01/25 07:46:17;;;;;;;28.77;13.45;;;1.00;99.90;;;;;;4931510;28;20047;-76
2023/01/25 07:48:50;;;;;;;31.83;15.48;;;1.10;99.90;;;;;;4928288;29;20106;-77
2023/01/25 07:51:25;;;;;;;33.17;13.27;;;0.90;99.90;;;;;;4920163;28;20356;-76
2023/01/25 07:54:02;;;;;;;28.05;12.18;;;0.70;99.90;;;;;;4941340;28;20047;-77
2023/01/25 07:56:32;;;;;;;29.67;12.23;;;0.50;99.90;;;;;;4940578;28;20372;-77
2023/01/25 07:58:58;;;;;;;37.03;15.68;;;0.70;99.90;;;;;;4939704;28;20519;-76
2023/01/25 08:01:25;;;;;;;28.30;13.88;;;0.70;99.90;;;;;;4940014;29;20055;-77
2023/01/25 08:03:51;;;;;;;39.08;14.57;;;0.60;99.90;;;;;;4946006;29;20475;-77
2023/01/25 08:06:21;;;;;;;29.33;13.50;;;0.70;99.90;;;;;;4928391;29;20048;-77
2023/01/25 08:08:47;;;;;;;33.08;14.85;;;0.70;99.90;;;;;;4939326;29;20069;-78
2023/01/25 08:11:19;;;;;;;29.80;14.82;;;0.80;99.90;;;;;;4922599;28;20126;-77
2023/01/25 08:13:45;;;;;;;31.80;14.43;;;0.90;99.90;;;;;;4940586;28;20051;-77
2023/01/25 08:16:14;;;;;;;30.20;14.02;;;1.00;99.90;;;;;;4954348;29;20051;-77
2023/01/25 08:18:40;;;;;;;34.42;15.75;;;1.10;99.90;;;;;;4922434;29;20101;-78
2023/01/25 08:21:06;;;;;;;33.85;14.95;;;1.00;99.90;;;;;;4936501;28;20137;-78
2023/01/25 08:23:32;;;;;;;30.92;14.85;;;1.00;99.90;;;;;;4912205;29;20499;-78
2023/01/25 08:26:04;;;;;;;31.95;15.30;;;1.00;99.90;;;;;;4931121;28;20043;-78
2023/01/25 08:28:30;;;;;;;33.85;15.80;;;0.80;99.90;;;;;;4913191;28;20039;-78
2023/01/25 08:31:09;;;;;;;36.00;14.88;;;0.70;99.90;;;;;;4958739;28;20069;-78
2023/01/25 08:33:35;;;;;;;35.83;16.25;;;0.70;99.90;;;;;;4932617;29;20055;-78
2023/01/25 08:36:01;;;;;;;33.22;14.30;;;0.60;99.90;;;;;;4929540;29;20078;-78
2023/01/25 08:38:27;;;;;;;34.83;15.63;;;0.90;99.90;;;;;;4923446;29;20499;-78
2023/01/25 08:40:52;;;;;;;35.10;15.73;;;0.70;99.90;;;;;;4907656;28;20469;-78
2023/01/25 08:43:18;;;;;;;34.53;15.55;;;0.70;99.90;;;;;;4934474;29;20365;-78
2023/01/25 08:45:44;;;;;;;34.25;16.67;;;0.60;99.90;;;;;;4901530;29;20043;-78
2023/01/25 08:48:14;;;;;;;35.67;16.73;;;0.70;99.90;;;;;;4930368;29;20054;-78
2023/01/25 08:50:45;;;;;;;36.75;17.67;;;0.80;99.90;;;;;;4924369;29;20054;-78
2023/01/25 08:53:11;;;;;;;34.30;16.55;;;0.80;99.90;;;;;;4915803;28;20769;-78
2023/01/25 08:55:37;;;;;;;35.45;16.98;;;0.90;99.90;;;;;;4940419;28;20046;-78
2023/01/25 08:58:03;;;;;;;38.33;17.00;;;0.80;99.90;;;;;;4963242;28;20073;-78
2023/01/25 09:00:28;;;;;;;34.20;17.42;;;0.60;99.90;;;;;;4924508;28;20047;-78
2023/01/25 09:02:54;;;;;;;37.10;16.67;;;0.70;99.90;;;;;;4928557;29;20387;-78
2023/01/25 09:05:20;;;;;;;43.83;17.45;;;0.80;99.90;;;;;;4943666;28;20050;-79
2023/01/25 09:07:46;;;;;;;37.97;17.77;;;0.80;99.90;;;;;;4922475;28;20600;-79
2023/01/25 09:10:11;;;;;;;38.38;17.05;;;0.60;99.90;;;;;;4917022;29;20054;-79
2023/01/25 09:12:37;;;;;;;41.35;18.13;;;0.70;99.90;;;;;;4930755;29;20047;-78
2023/01/25 09:15:03;;;;;;;42.17;17.63;;;0.60;99.90;;;;;;4970403;28;20483;-79
2023/01/25 09:17:29;;;;;;;40.83;17.92;;;0.60;99.90;;;;;;4948825;29;20062;-78
2023/01/25 09:19:55;;;;;;;35.70;17.98;;;0.50;99.90;;;;;;4941849;29;20051;-78
2023/01/25 09:22:20;;;;;;;42.17;18.70;;;0.80;99.90;;;;;;4943119;28;20044;-78
2023/01/25 09:24:50;;;;;;;42.42;18.25;;;0.50;99.90;;;;;;4938406;29;20473;-78
2023/01/25 09:27:16;;;;;;;43.72;19.77;;;0.40;99.90;;;;;;4947201;28;20081;-78
2023/01/25 09:29:42;;;;;;;29.52;15.38;;;0.60;99.90;;;;;;4940318;28;20600;-78
2023/01/25 09:32:08;;;;;;;33.20;17.10;;;0.70;99.90;;;;;;4948728;28;20043;-78
2023/01/25 09:34:35;;;;;;;33.58;17.17;;;0.60;99.90;;;;;;4928704;29;20081;-78
2023/01/25 09:37:00;;;;;;;36.65;17.05;;;0.50;99.90;;;;;;4942361;29;20531;-78
2023/01/25 09:39:26;;;;;;;33.85;17.13;;;0.40;99.90;;;;;;4942288;29;20134;-78
2023/01/25 09:42:17;;;;;;;43.05;19.15;;;0.40;99.90;;;;;;4923331;28;20661;-78
2023/01/25 09:45:11;;;;;;;32.45;17.13;;;0.30;99.90;;;;;;4926590;29;20046;-79
2023/01/25 09:47:44;;;;;;;33.95;16.70;;;0.50;99.90;;;;;;4908300;29;20047;-78
2023/01/25 09:50:33;;;;;;;42.28;19.83;;;0.30;99.90;;;;;;4922950;29;20100;-78
2023/01/25 09:53:15;;;;;;;39.83;18.95;;;0.50;99.90;;;;;;4958701;28;20081;-78
2023/01/25 09:55:41;;;;;;;33.88;15.20;;;0.50;99.90;;;;;;4928061;29;20386;-78
2023/01/25 09:58:13;;;;;;;35.47;17.00;;;0.50;99.90;;;;;;4928736;28;20048;-78
2023/01/25 10:00:48;;;;;;;36.95;18.17;;;0.40;99.90;;;;;;4926930;29;20133;-78
2023/01/25 10:03:21;;;;;;;37.03;18.42;;;0.30;99.90;;;;;;4916877;29;20069;-78
2023/01/25 10:05:57;;;;;;;42.55;20.02;;;0.40;99.90;;;;;;4941050;29;20551;-78
2023/01/25 10:08:50;;;;;;;46.42;19.77;;;0.40;99.90;;;;;;4928343;29;20047;-78
2023/01/25 10:11:19;;;;;;;56.13;22.42;;;0.40;99.90;;;;;;4941829;28;20575;-79
2023/01/25 10:13:45;;;;;;;48.33;21.92;;;0.50;99.90;;;;;;4941951;29;20055;-79
2023/01/25 10:16:22;;;;;;;48.88;23.70;;;0.50;99.90;;;;;;4932489;28;20380;-78
2023/01/25 10:19:06;;;;;;;66.65;26.33;;;0.40;99.90;;;;;;4937473;28;20058;-78
2023/01/25 10:21:40;;;;;;;64.40;25.83;;;0.30;99.90;;;;;;4938823;29;20110;-78
2023/01/25 10:24:30;;;;;;;88.07;29.65;;;0.40;99.90;;;;;;4957904;28;20047;-79
2023/01/25 10:26:57;;;;;;;67.18;26.88;;;0.30;99.90;;;;;;4933787;28;20446;-78
2023/01/25 10:29:33;;;;;;;77.70;32.47;;;0.40;99.90;;;;;;4921309;28;20063;-78
2023/01/25 10:32:19;;;;;;;82.88;33.97;;;0.50;99.90;;;;;;4928465;28;20447;-77
2023/01/25 10:34:49;;;;;;;79.65;34.30;;;0.50;99.90;;;;;;4938110;28;20073;-78
2023/01/25 10:37:28;;;;;;;81.65;32.45;;;0.60;99.90;;;;;;4932030;28;20039;-77
2023/01/25 10:40:03;;;;;;;83.80;34.97;;;0.50;99.90;;;;;;4963618;28;20091;-78
2023/01/25 10:42:30;;;;;;;88.28;34.28;;;0.40;99.90;;;;;;4939764;28;20118;-77
2023/01/25 10:44:56;;;;;;;97.35;38.08;;;0.30;99.90;;;;;;4930298;29;20803;-77
2023/01/25 10:47:26;;;;;;;106.05;39.65;;;0.50;99.90;;;;;;4923549;29;20080;-77
2023/01/25 10:49:56;;;;;;;121.45;44.47;;;0.30;99.90;;;;;;4925975;29;20043;-78
2023/01/25 10:52:23;;;;;;;91.35;39.78;;;0.10;99.90;;;;;;4954259;28;20126;-77
2023/01/25 10:55:09;;;;;;;114.63;41.50;;;0.30;99.90;;;;;;4941506;28;20048;-77
2023/01/25 10:57:34;;;;;;;86.88;35.30;;;0.40;99.90;;;;;;4950607;29;20697;-77
2023/01/25 11:00:02;;;;;;;72.32;29.25;;;0.40;99.90;;;;;;4917345;28;20046;-77
2023/01/25 11:02:44;;;;;;;62.35;27.48;;;0.30;99.90;;;;;;4911857;29;20078;-77
2023/01/25 11:05:38;;;;;;;55.72;25.13;;;0.40;99.90;;;;;;4941261;29;20182;-76
2023/01/25 11:08:23;;;;;;;68.00;28.10;;;0.50;99.90;;;;;;4965132;28;20051;-77
2023/01/25 11:10:49;;;;;;;55.97;26.05;;;0.60;99.90;;;;;;4943131;28;20053;-77
2023/01/25 11:13:15;;;;;;;66.97;27.13;;;0.60;99.90;;;;;;4926418;29;20466;-77
2023/01/25 11:15:43;;;;;;;64.25;26.77;;;0.50;99.90;;;;;;4939724;29;20039;-77
2023/01/25 11:18:15;;;;;;;51.35;24.23;;;0.50;99.90;;;;;;4934536;28;20047;-77
2023/01/25 11:20:41;;;;;;;43.40;20.50;;;0.50;99.90;;;;;;4935295;29;20043;-76
2023/01/25 11:23:23;;;;;;;52.80;22.98;;;0.60;99.90;;;;;;4950038;28;20053;-77
2023/01/25 11:25:49;;;;;;;44.60;20.20;;;0.20;99.90;;;;;;4938256;29;20471;-78
2023/01/25 11:28:16;;;;;;;41.72;19.33;;;0.30;99.90;;;;;;4930124;28;20080;-78
2023/01/25 11:30:42;;;;;;;41.50;19.27;;;0.20;99.90;;;;;;4947078;29;20050;-78
2023/01/25 11:33:11;;;;;;;38.92;19.02;;;0.40;99.90;;;;;;4946632;29;20051;-78
2023/01/25 11:35:59;;;;;;;42.25;19.17;;;0.40;99.90;;;;;;4936667;29;20054;-77
2023/01/25 11:38:24;;;;;;;45.28;20.63;;;0.30;99.90;;;;;;4942597;29;20054;-76
2023/01/25 11:41:10;;;;;;;47.10;20.40;;;0.30;99.90;;;;;;4946482;28;20749;-78
2023/01/25 11:43:54;;;;;;;31.33;14.75;;;0.20;99.90;;;;;;4939712;29;21004;-78
2023/01/25 11:46:44;;;;;;;33.08;15.32;;;0.40;99.90;;;;;;4951960;28;20046;-78
2023/01/25 11:49:18;;;;;;;37.67;16.70;;;0.30;99.90;;;;;;4956407;28;20059;-79
2023/01/25 11:51:47;;;;;;;32.42;14.77;;;0.40;99.90;;;;;;4942623;28;20051;-79
2023/01/25 11:54:42;;;;;;;34.42;15.50;;;0.40;99.90;;;;;;4933470;29;20057;-78
2023/01/25 11:57:30;;;;;;;30.92;15.23;;;0.40;99.90;;;;;;4943832;28;20424;-78
2023/01/25 12:00:08;;;;;;;39.60;16.20;;;0.40;99.90;;;;;;4960244;28;20053;-78
2023/01/25 12:02:56;;;;;;;44.25;17.88;;;0.30;99.90;;;;;;4948314;28;20051;-78
2023/01/25 12:05:40;;;;;;;31.13;13.23;;;0.20;99.90;;;;;;4940824;29;20385;-79
2023/01/25 12:08:11;;;;;;;41.40;17.75;;;0.40;99.90;;;;;;4958964;28;20123;-78
2023/01/25 12:10:46;;;;;;;45.33;16.58;;;0.20;99.90;;;;;;4956203;28;20438;-79
2023/01/25 12:13:23;;;;;;;35.90;16.13;;;0.20;99.90;;;;;;4942466;28;20059;-78
2023/01/25 12:16:14;;;;;;;45.17;17.70;;;0.30;99.90;;;;;;4941224;29;20035;-79
2023/01/25 12:18:44;;;;;;;55.95;22.38;;;0.30;99.90;;;;;;4934453;29;20059;-76
2023/01/25 12:21:48;;;;;;;40.63;18.42;;;0.70;99.90;;;;;;4923676;28;20107;-77
2023/01/25 12:24:36;;;;;;;40.13;18.25;;;0.80;99.90;;;;;;4947103;28;20725;-76
2023/01/25 12:27:11;;;;;;;40.47;15.50;;;0.60;99.90;;;;;;4946153;28;20047;-77
2023/01/25 12:29:47;;;;;;;42.90;17.88;;;0.30;99.90;;;;;;4946187;29;20738;-76
2023/01/25 12:32:23;;;;;;;44.20;16.35;;;0.60;99.90;;;;;;4940246;29;20051;-77
2023/01/25 12:34:54;;;;;;;42.75;16.13;;;0.70;99.90;;;;;;4928614;28;20476;-76
2023/01/25 12:37:23;;;;;;;43.13;18.65;;;0.60;99.90;;;;;;4914919;29;20062;-76
2023/01/25 12:40:00;;;;;;;44.78;18.88;;;0.60;99.90;;;;;;4923560;28;20082;-76
2023/01/25 12:42:31;;;;;;;40.90;16.48;;;0.80;99.90;;;;;;4929782;29;20070;-77
2023/01/25 12:45:10;;;;;;;44.22;19.23;;;0.40;99.90;;;;;;4931710;28;20053;-77
2023/01/25 12:47:46;;;;;;;38.10;17.05;;;0.60;99.90;;;;;;4927014;28;20130;-77